Pagina principale
METAR-TAF:

METAR-TAF

Aeroporti :

Longyearbyen, Norvegia

Aeroporto delle Svalbard-Longyearbyen

latitudine: 78-15N, longitudine: 015-28E, altezza: 2 m

Osservazione

Il bollettino è stato emesso 1 ora e 6 minuti fa, alle 22:50 UTC
Vento 15 kt da sud-est
Temperature -1°C
Umidità 69%
Pressione 1031 hPa
Visibilità 10 km o più
Nubi sparse ad un'altezza di 3800 ft
Nuvoloso ad un'altezza di 8000 ft

METAR: ENSB 232250Z 13015KT 9999 SCT038 BKN080 M01/M06 Q1031 RMK WIND 1400FT 17018KT

Ora: 00:56 (23:56 UTC)

Previsione

Previsione valida dal 24 alle 00 UTC al 24 alle 24 UTC
Vento 15 kt da sud-est
Visibilità 10 km o più
Poco nuvoloso ad un'altezza di 1500 ft
Nubi sparse ad un'altezza di 4000 ft
Temporaneamente
dal 24 alle 00 UTC al 24 alle 06 UTC
Vento 25 kt da sud-est

TAF: ENSB 2400/2424 13015KT 9999 FEW015 SCT040 TEMPO 2400/2406 14025KT

Osservazioni e previsioni meteorologiche di più di 4000 aeroporti (messaggi METAR e TAF).

Le stazioni disponibili sono rappresentate dai dischi gialli e rossi sulla carta.

Puntare il mouse per vedere il nome della stazione.

Clicca sopra per visualizzare le osservazioni e previsioni meteorologiche.

Per cambiare la mappa : fare clic sui pulsanti verdi con una croce nera per ingrandire, il pulsante verde con un trattino per diminuire, o sulla freccia verde per le mappe adiacenti.


METAR-TAF: